sensor_id;sensor_type;location;lat;lon;timestamp;pressure;altitude;pressure_sealevel;temperature;humidity
41044;BME280;51680;49.806;18.774;2023-08-20T00:01:12;97787.31;;;23.53;89.31
41044;BME280;51680;49.806;18.774;2023-08-20T00:04:14;97787.00;;;23.40;89.91
41044;BME280;51680;49.806;18.774;2023-08-20T00:07:17;97784.69;;;23.29;90.28
41044;BME280;51680;49.806;18.774;2023-08-20T00:10:18;97787.34;;;23.21;90.92
41044;BME280;51680;49.806;18.774;2023-08-20T00:13:20;97779.50;;;23.20;90.99
41044;BME280;51680;49.806;18.774;2023-08-20T00:16:24;97783.50;;;23.24;90.64
41044;BME280;51680;49.806;18.774;2023-08-20T00:19:29;97785.00;;;23.26;90.71
41044;BME280;51680;49.806;18.774;2023-08-20T00:22:31;97781.81;;;23.31;90.44
41044;BME280;51680;49.806;18.774;2023-08-20T00:25:34;97773.03;;;23.38;90.13
41044;BME280;51680;49.806;18.774;2023-08-20T00:28:35;97770.69;;;23.43;89.82
41044;BME280;51680;49.806;18.774;2023-08-20T00:31:40;97779.50;;;23.52;89.13
41044;BME280;51680;49.806;18.774;2023-08-20T00:34:42;97783.81;;;23.53;89.33
41044;BME280;51680;49.806;18.774;2023-08-20T00:37:45;97775.66;;;23.54;89.23
41044;BME280;51680;49.806;18.774;2023-08-20T00:40:47;97778.81;;;23.58;89.06
41044;BME280;51680;49.806;18.774;2023-08-20T00:43:49;97772.47;;;23.59;89.08
41044;BME280;51680;49.806;18.774;2023-08-20T00:46:52;97778.66;;;23.59;89.04
41044;BME280;51680;49.806;18.774;2023-08-20T00:49:54;97772.78;;;23.64;88.66
41044;BME280;51680;49.806;18.774;2023-08-20T00:52:56;97771.63;;;23.66;88.58
41044;BME280;51680;49.806;18.774;2023-08-20T00:55:58;97776.31;;;23.64;88.60
41044;BME280;51680;49.806;18.774;2023-08-20T00:59:00;97781.00;;;23.62;88.52
41044;BME280;51680;49.806;18.774;2023-08-20T01:02:03;97773.47;;;23.58;88.79
41044;BME280;51680;49.806;18.774;2023-08-20T01:05:08;97778.81;;;23.58;88.51
41044;BME280;51680;49.806;18.774;2023-08-20T01:08:26;97773.16;;;23.53;88.83
41044;BME280;51680;49.806;18.774;2023-08-20T01:11:36;97775.81;;;23.53;88.85
41044;BME280;51680;49.806;18.774;2023-08-20T01:14:40;97776.50;;;23.47;88.96
41044;BME280;51680;49.806;18.774;2023-08-20T01:17:43;97774.66;;;23.47;89.13
41044;BME280;51680;49.806;18.774;2023-08-20T01:20:53;97774.97;;;23.52;88.77
41044;BME280;51680;49.806;18.774;2023-08-20T01:24:01;97777.47;;;23.54;88.57
41044;BME280;51680;49.806;18.774;2023-08-20T01:27:20;97781.47;;;23.50;88.96
41044;BME280;51680;49.806;18.774;2023-08-20T01:30:30;97781.00;;;23.46;88.84
41044;BME280;51680;49.806;18.774;2023-08-20T01:33:33;97785.50;;;23.46;88.69
41044;BME280;51680;49.806;18.774;2023-08-20T01:36:35;97784.16;;;23.42;88.77
41044;BME280;51680;49.806;18.774;2023-08-20T01:39:38;97776.50;;;23.39;88.92
41044;BME280;51680;49.806;18.774;2023-08-20T01:42:40;97780.34;;;23.36;89.12
41044;BME280;51680;49.806;18.774;2023-08-20T01:45:43;97773.34;;;23.35;89.12
41044;BME280;51680;49.806;18.774;2023-08-20T01:48:45;97777.00;;;23.34;88.98
41044;BME280;51680;49.806;18.774;2023-08-20T01:51:47;97777.19;;;23.33;89.00
41044;BME280;51680;49.806;18.774;2023-08-20T01:54:49;97777.84;;;23.27;89.43
41044;BME280;51680;49.806;18.774;2023-08-20T01:57:50;97777.53;;;23.22;89.69
41044;BME280;51680;49.806;18.774;2023-08-20T02:00:53;97777.53;;;23.22;89.55
41044;BME280;51680;49.806;18.774;2023-08-20T02:03:55;97777.53;;;23.22;89.44
41044;BME280;51680;49.806;18.774;2023-08-20T02:06:57;97776.16;;;23.18;89.71
41044;BME280;51680;49.806;18.774;2023-08-20T02:09:59;97775.81;;;23.13;89.89
41044;BME280;51680;49.806;18.774;2023-08-20T02:13:01;97780.81;;;23.08;90.14
41044;BME280;51680;49.806;18.774;2023-08-20T02:16:05;97775.13;;;23.11;89.85
41044;BME280;51680;49.806;18.774;2023-08-20T02:19:07;97774.97;;;23.12;89.73
41044;BME280;51680;49.806;18.774;2023-08-20T02:22:09;97777.31;;;23.15;89.69
41044;BME280;51680;49.806;18.774;2023-08-20T02:25:11;97778.13;;;23.16;89.56
41044;BME280;51680;49.806;18.774;2023-08-20T02:28:13;97775.84;;;23.21;89.30
41044;BME280;51680;49.806;18.774;2023-08-20T02:31:16;97773.16;;;23.21;89.26
41044;BME280;51680;49.806;18.774;2023-08-20T02:34:22;97781.66;;;23.16;89.33
41044;BME280;51680;49.806;18.774;2023-08-20T02:37:24;97771.97;;;23.07;89.69
41044;BME280;51680;49.806;18.774;2023-08-20T02:40:26;97776.81;;;23.04;89.88
41044;BME280;51680;49.806;18.774;2023-08-20T02:43:27;97769.50;;;22.98;90.09
41044;BME280;51680;49.806;18.774;2023-08-20T02:46:31;97769.81;;;22.95;90.17
41044;BME280;51680;49.806;18.774;2023-08-20T02:49:32;97766.47;;;22.93;90.29
41044;BME280;51680;49.806;18.774;2023-08-20T02:52:34;97773.47;;;22.94;90.16
41044;BME280;51680;49.806;18.774;2023-08-20T02:55:36;97771.78;;;22.93;90.25
41044;BME280;51680;49.806;18.774;2023-08-20T02:58:38;97774.13;;;22.96;90.15
41044;BME280;51680;49.806;18.774;2023-08-20T03:01:41;97780.28;;;23.04;89.56
41044;BME280;51680;49.806;18.774;2023-08-20T03:04:43;97769.81;;;23.11;89.01
41044;BME280;51680;49.806;18.774;2023-08-20T03:07:44;97781.47;;;23.18;88.85
41044;BME280;51680;49.806;18.774;2023-08-20T03:10:46;97778.81;;;23.18;88.72
41044;BME280;51680;49.806;18.774;2023-08-20T03:13:48;97791.47;;;23.16;88.85
41044;BME280;51680;49.806;18.774;2023-08-20T03:16:51;97788.78;;;23.16;88.73
41044;BME280;51680;49.806;18.774;2023-08-20T03:19:54;97790.81;;;23.14;88.94
41044;BME280;51680;49.806;18.774;2023-08-20T03:22:56;97790.31;;;23.10;89.16
41044;BME280;51680;49.806;18.774;2023-08-20T03:25:58;97795.28;;;23.13;88.94
41044;BME280;51680;49.806;18.774;2023-08-20T03:29:00;97801.13;;;23.17;88.56
41044;BME280;51680;49.806;18.774;2023-08-20T03:32:05;97807.00;;;23.20;88.44
41044;BME280;51680;49.806;18.774;2023-08-20T03:35:07;97798.84;;;23.22;88.39
41044;BME280;51680;49.806;18.774;2023-08-20T03:38:09;97810.81;;;23.26;88.18
41044;BME280;51680;49.806;18.774;2023-08-20T03:41:12;97809.84;;;23.27;88.26
41044;BME280;51680;49.806;18.774;2023-08-20T03:44:14;97805.47;;;23.26;88.30
41044;BME280;51680;49.806;18.774;2023-08-20T03:47:17;97800.16;;;23.26;87.91
41044;BME280;51680;49.806;18.774;2023-08-20T03:50:20;97803.00;;;23.24;88.20
41044;BME280;51680;49.806;18.774;2023-08-20T03:53:22;97806.66;;;23.23;88.36
41044;BME280;51680;49.806;18.774;2023-08-20T03:56:24;97800.16;;;23.26;88.11
41044;BME280;51680;49.806;18.774;2023-08-20T03:59:26;97802.50;;;23.29;87.89
41044;BME280;51680;49.806;18.774;2023-08-20T04:02:29;97810.16;;;23.32;87.79
41044;BME280;51680;49.806;18.774;2023-08-20T04:05:35;97800.84;;;23.28;88.12
41044;BME280;51680;49.806;18.774;2023-08-20T04:08:37;97803.66;;;23.26;87.92
41044;BME280;51680;49.806;18.774;2023-08-20T04:11:39;97805.81;;;23.23;88.15
41044;BME280;51680;49.806;18.774;2023-08-20T04:14:42;97805.16;;;23.29;87.63
41044;BME280;51680;49.806;18.774;2023-08-20T04:17:45;97805.81;;;23.39;87.42
41044;BME280;51680;49.806;18.774;2023-08-20T04:20:49;97803.31;;;23.45;87.05
41044;BME280;51680;49.806;18.774;2023-08-20T04:23:51;97798.81;;;23.54;86.56
41044;BME280;51680;49.806;18.774;2023-08-20T04:26:52;97798.47;;;23.65;85.97
41044;BME280;51680;49.806;18.774;2023-08-20T04:29:59;97796.09;;;23.86;85.17
41044;BME280;51680;49.806;18.774;2023-08-20T04:33:04;97804.59;;;24.05;84.26
41044;BME280;51680;49.806;18.774;2023-08-20T04:36:07;97798.19;;;24.14;84.04
41044;BME280;51680;49.806;18.774;2023-08-20T04:39:08;97808.28;;;24.35;83.12
41044;BME280;51680;49.806;18.774;2023-08-20T04:42:13;97803.22;;;24.56;82.28
41044;BME280;51680;49.806;18.774;2023-08-20T04:45:15;97809.72;;;24.84;81.02
41044;BME280;51680;49.806;18.774;2023-08-20T04:48:20;97812.78;;;25.03;79.46
41044;BME280;51680;49.806;18.774;2023-08-20T04:51:22;97809.41;;;25.32;79.38
41044;BME280;51680;49.806;18.774;2023-08-20T04:54:24;97818.13;;;25.48;78.47
41044;BME280;51680;49.806;18.774;2023-08-20T04:57:26;97816.94;;;25.73;77.64
41044;BME280;51680;49.806;18.774;2023-08-20T05:00:30;97815.31;;;26.01;76.71
41044;BME280;51680;49.806;18.774;2023-08-20T05:03:41;97819.94;;;26.22;75.70
41044;BME280;51680;49.806;18.774;2023-08-20T05:06:43;97815.03;;;26.40;75.30
41044;BME280;51680;49.806;18.774;2023-08-20T05:09:44;97816.53;;;26.57;74.48
41044;BME280;51680;49.806;18.774;2023-08-20T05:12:46;97812.88;;;26.79;73.88
41044;BME280;51680;49.806;18.774;2023-08-20T05:15:51;97808.81;;;27.04;72.44
41044;BME280;51680;49.806;18.774;2023-08-20T05:18:55;97814.09;;;27.33;71.43
41044;BME280;51680;49.806;18.774;2023-08-20T05:21:57;97818.44;;;27.55;71.24
41044;BME280;51680;49.806;18.774;2023-08-20T05:25:02;97821.34;;;27.81;70.43
41044;BME280;51680;49.806;18.774;2023-08-20T05:28:05;97819.66;;;28.01;69.71
41044;BME280;51680;49.806;18.774;2023-08-20T05:31:08;97828.88;;;28.19;69.33
41044;BME280;51680;49.806;18.774;2023-08-20T05:34:12;97824.47;;;28.39;68.74
41044;BME280;51680;49.806;18.774;2023-08-20T05:37:14;97828.28;;;28.64;67.84
41044;BME280;51680;49.806;18.774;2023-08-20T05:40:17;97830.81;;;28.72;67.52
41044;BME280;51680;49.806;18.774;2023-08-20T05:43:19;97826.31;;;28.86;67.05
41044;BME280;51680;49.806;18.774;2023-08-20T05:46:21;97829.72;;;29.01;66.41
41044;BME280;51680;49.806;18.774;2023-08-20T05:49:24;97833.03;;;29.03;66.33
41044;BME280;51680;49.806;18.774;2023-08-20T05:52:26;97831.06;;;28.84;66.93
41044;BME280;51680;49.806;18.774;2023-08-20T05:55:28;97834.13;;;28.68;68.07
41044;BME280;51680;49.806;18.774;2023-08-20T05:58:31;97836.97;;;28.60;68.19
41044;BME280;51680;49.806;18.774;2023-08-20T06:01:34;97843.44;;;28.38;68.95
41044;BME280;51680;49.806;18.774;2023-08-20T06:04:37;97844.53;;;28.16;69.15
41044;BME280;51680;49.806;18.774;2023-08-20T06:07:39;97838.66;;;28.33;69.06
41044;BME280;51680;49.806;18.774;2023-08-20T06:10:41;97843.69;;;28.83;67.25
41044;BME280;51680;49.806;18.774;2023-08-20T06:13:42;97836.56;;;29.10;66.69
41044;BME280;51680;49.806;18.774;2023-08-20T06:16:44;97842.16;;;29.15;66.17
41044;BME280;51680;49.806;18.774;2023-08-20T06:19:47;97844.28;;;29.33;65.26
41044;BME280;51680;49.806;18.774;2023-08-20T06:22:49;97845.13;;;29.52;64.28
41044;BME280;51680;49.806;18.774;2023-08-20T06:25:50;97848.88;;;30.10;62.90
41044;BME280;51680;49.806;18.774;2023-08-20T06:28:52;97837.81;;;30.57;62.07
41044;BME280;51680;49.806;18.774;2023-08-20T06:31:54;97845.97;;;31.01;60.77
41044;BME280;51680;49.806;18.774;2023-08-20T06:34:57;97836.50;;;31.61;59.61
41044;BME280;51680;49.806;18.774;2023-08-20T06:37:58;97841.13;;;31.85;58.26
41044;BME280;51680;49.806;18.774;2023-08-20T06:41:00;97858.06;;;31.98;57.09
41044;BME280;51680;49.806;18.774;2023-08-20T06:44:02;97842.28;;;31.95;56.91
41044;BME280;51680;49.806;18.774;2023-08-20T06:47:04;97845.31;;;32.05;56.92
41044;BME280;51680;49.806;18.774;2023-08-20T06:50:08;97856.94;;;32.30;55.76
41044;BME280;51680;49.806;18.774;2023-08-20T06:53:10;97847.75;;;32.74;55.47
41044;BME280;51680;49.806;18.774;2023-08-20T06:56:12;97855.59;;;33.11;55.30
41044;BME280;51680;49.806;18.774;2023-08-20T06:59:14;97848.69;;;33.33;55.65
41044;BME280;51680;49.806;18.774;2023-08-20T07:02:17;97849.72;;;33.73;54.77
41044;BME280;51680;49.806;18.774;2023-08-20T07:05:20;97845.06;;;34.03;52.63
41044;BME280;51680;49.806;18.774;2023-08-20T07:08:21;97847.44;;;34.23;52.96
41044;BME280;51680;49.806;18.774;2023-08-20T07:11:23;97851.00;;;34.81;50.78
41044;BME280;51680;49.806;18.774;2023-08-20T07:14:25;97845.81;;;35.47;48.97
41044;BME280;51680;49.806;18.774;2023-08-20T07:17:26;97854.22;;;35.73;47.74
41044;BME280;51680;49.806;18.774;2023-08-20T07:20:29;97857.22;;;36.21;47.92
41044;BME280;51680;49.806;18.774;2023-08-20T07:23:31;97857.94;;;36.71;46.13
41044;BME280;51680;49.806;18.774;2023-08-20T07:26:33;97854.22;;;37.15;45.43
41044;BME280;51680;49.806;18.774;2023-08-20T07:29:35;97856.81;;;37.53;44.69
41044;BME280;51680;49.806;18.774;2023-08-20T07:32:36;97851.88;;;37.77;44.31
41044;BME280;51680;49.806;18.774;2023-08-20T07:35:39;97856.25;;;38.09;43.40
41044;BME280;51680;49.806;18.774;2023-08-20T07:38:42;97856.38;;;38.24;43.07
41044;BME280;51680;49.806;18.774;2023-08-20T07:41:44;97859.09;;;38.56;43.26
41044;BME280;51680;49.806;18.774;2023-08-20T07:44:46;97858.88;;;38.73;42.53
41044;BME280;51680;49.806;18.774;2023-08-20T07:47:47;97861.78;;;38.93;41.52
41044;BME280;51680;49.806;18.774;2023-08-20T07:50:50;97857.47;;;39.07;41.10
41044;BME280;51680;49.806;18.774;2023-08-20T07:53:52;97859.66;;;39.15;41.14
41044;BME280;51680;49.806;18.774;2023-08-20T07:56:54;97861.09;;;39.32;40.35
41044;BME280;51680;49.806;18.774;2023-08-20T07:59:55;97865.56;;;39.53;40.14
41044;BME280;51680;49.806;18.774;2023-08-20T08:02:57;97864.19;;;39.61;39.78
41044;BME280;51680;49.806;18.774;2023-08-20T08:06:00;97856.50;;;39.53;39.07
41044;BME280;51680;49.806;18.774;2023-08-20T08:09:18;97866.94;;;39.56;38.18
41044;BME280;51680;49.806;18.774;2023-08-20T08:12:20;97863.63;;;39.54;39.16
41044;BME280;51680;49.806;18.774;2023-08-20T08:15:22;97859.22;;;39.38;39.82
41044;BME280;51680;49.806;18.774;2023-08-20T08:18:23;97867.44;;;39.43;39.72
41044;BME280;51680;49.806;18.774;2023-08-20T08:21:27;97875.13;;;39.51;39.55
41044;BME280;51680;49.806;18.774;2023-08-20T08:24:28;97872.16;;;39.67;39.15
41044;BME280;51680;49.806;18.774;2023-08-20T08:27:30;97868.09;;;39.80;38.51
41044;BME280;51680;49.806;18.774;2023-08-20T08:30:32;97870.00;;;39.79;38.71
41044;BME280;51680;49.806;18.774;2023-08-20T08:33:34;97865.34;;;39.85;38.74
41044;BME280;51680;49.806;18.774;2023-08-20T08:36:37;97865.34;;;39.90;38.07
41044;BME280;51680;49.806;18.774;2023-08-20T08:39:38;97867.00;;;39.96;37.52
41044;BME280;51680;49.806;18.774;2023-08-20T08:42:41;97860.41;;;39.97;37.17
41044;BME280;51680;49.806;18.774;2023-08-20T08:45:46;97865.34;;;40.00;37.22
41044;BME280;51680;49.806;18.774;2023-08-20T08:48:48;97859.88;;;40.05;37.38
41044;BME280;51680;49.806;18.774;2023-08-20T08:51:53;97870.81;;;40.05;36.87
41044;BME280;51680;49.806;18.774;2023-08-20T08:54:55;97870.81;;;40.05;37.81
41044;BME280;51680;49.806;18.774;2023-08-20T08:57:57;97858.50;;;40.07;37.05
41044;BME280;51680;49.806;18.774;2023-08-20T09:00:59;97857.16;;;39.80;37.09
41044;BME280;51680;49.806;18.774;2023-08-20T09:04:01;97869.19;;;39.79;37.87
41044;BME280;51680;49.806;18.774;2023-08-20T09:07:04;97866.72;;;39.87;38.03
41044;BME280;51680;49.806;18.774;2023-08-20T09:10:07;97863.97;;;39.77;38.03
41044;BME280;51680;49.806;18.774;2023-08-20T09:13:09;97862.59;;;39.75;37.92
41044;BME280;51680;49.806;18.774;2023-08-20T09:16:11;97866.69;;;39.72;38.43
41044;BME280;51680;49.806;18.774;2023-08-20T09:19:13;97863.72;;;39.84;37.67
41044;BME280;51680;49.806;18.774;2023-08-20T09:22:16;97863.72;;;39.94;37.16
41044;BME280;51680;49.806;18.774;2023-08-20T09:25:18;97865.34;;;39.95;37.38
41044;BME280;51680;49.806;18.774;2023-08-20T09:28:20;97865.88;;;39.97;38.14
41044;BME280;51680;49.806;18.774;2023-08-20T09:31:37;97868.91;;;40.10;36.80
41044;BME280;51680;49.806;18.774;2023-08-20T09:34:39;97874.94;;;40.12;37.28
41044;BME280;51680;49.806;18.774;2023-08-20T09:37:43;97872.78;;;40.19;37.09
41044;BME280;51680;49.806;18.774;2023-08-20T09:40:46;97872.75;;;40.09;36.66
41044;BME280;51680;49.806;18.774;2023-08-20T09:43:52;97876.31;;;40.15;36.30
41044;BME280;51680;49.806;18.774;2023-08-20T09:46:56;97879.03;;;40.05;36.83
41044;BME280;51680;49.806;18.774;2023-08-20T09:49:59;97881.25;;;40.03;36.72
41044;BME280;51680;49.806;18.774;2023-08-20T09:53:06;97871.66;;;40.05;36.47
41044;BME280;51680;49.806;18.774;2023-08-20T09:56:17;97871.41;;;40.12;36.09
41044;BME280;51680;49.806;18.774;2023-08-20T09:59:22;97865.94;;;40.22;35.65
41044;BME280;51680;49.806;18.774;2023-08-20T10:02:25;97866.19;;;40.30;36.05
41044;BME280;51680;49.806;18.774;2023-08-20T10:05:27;97865.91;;;40.42;35.59
41044;BME280;51680;49.806;18.774;2023-08-20T10:08:30;97870.31;;;40.33;35.27
41044;BME280;51680;49.806;18.774;2023-08-20T10:11:32;97863.97;;;40.37;35.29
41044;BME280;51680;49.806;18.774;2023-08-20T10:14:34;97864.53;;;40.49;35.85
41044;BME280;51680;49.806;18.774;2023-08-20T10:17:37;97861.53;;;40.46;35.42
41044;BME280;51680;49.806;18.774;2023-08-20T10:20:39;97859.06;;;40.59;35.38
41044;BME280;51680;49.806;18.774;2023-08-20T10:23:48;97857.13;;;40.10;35.25
41044;BME280;51680;49.806;18.774;2023-08-20T10:27:07;97856.50;;;39.43;35.69
41044;BME280;51680;49.806;18.774;2023-08-20T10:30:10;97858.50;;;39.01;37.58
41044;BME280;51680;49.806;18.774;2023-08-20T10:33:15;97857.75;;;38.59;38.15
41044;BME280;51680;49.806;18.774;2023-08-20T10:36:20;97845.53;;;38.76;37.71
41044;BME280;51680;49.806;18.774;2023-08-20T10:39:24;97854.94;;;38.95;36.78
41044;BME280;51680;49.806;18.774;2023-08-20T10:42:27;97842.69;;;39.08;35.92
41044;BME280;51680;49.806;18.774;2023-08-20T10:45:29;97839.47;;;39.21;35.83
41044;BME280;51680;49.806;18.774;2023-08-20T10:48:31;97838.94;;;39.29;35.27
41044;BME280;51680;49.806;18.774;2023-08-20T10:51:36;97838.38;;;39.27;35.77
41044;BME280;51680;49.806;18.774;2023-08-20T10:54:40;97840.53;;;39.15;36.10
41044;BME280;51680;49.806;18.774;2023-08-20T10:57:42;97846.22;;;39.03;36.48
41044;BME280;51680;49.806;18.774;2023-08-20T11:00:44;97841.56;;;38.94;36.67
41044;BME280;51680;49.806;18.774;2023-08-20T11:03:46;97842.25;;;38.79;36.50
41044;BME280;51680;49.806;18.774;2023-08-20T11:06:52;97839.75;;;38.68;37.14
41044;BME280;51680;49.806;18.774;2023-08-20T11:09:57;97841.91;;;38.61;36.97
41044;BME280;51680;49.806;18.774;2023-08-20T11:12:58;97841.84;;;38.51;37.43
41044;BME280;51680;49.806;18.774;2023-08-20T11:16:06;97831.31;;;38.33;37.99
41044;BME280;51680;49.806;18.774;2023-08-20T11:19:09;97827.94;;;38.16;37.57
41044;BME280;51680;49.806;18.774;2023-08-20T11:22:11;97819.88;;;37.99;37.02
41044;BME280;51680;49.806;18.774;2023-08-20T11:25:15;97822.97;;;37.76;37.33
41044;BME280;51680;49.806;18.774;2023-08-20T11:28:17;97817.81;;;37.53;37.67
41044;BME280;51680;49.806;18.774;2023-08-20T11:31:19;97821.81;;;37.45;37.99
41044;BME280;51680;49.806;18.774;2023-08-20T11:34:21;97820.59;;;37.31;38.23
41044;BME280;51680;49.806;18.774;2023-08-20T11:37:23;97822.41;;;37.26;38.07
41044;BME280;51680;49.806;18.774;2023-08-20T11:40:26;97821.63;;;37.25;37.24
41044;BME280;51680;49.806;18.774;2023-08-20T11:43:28;97818.31;;;37.23;37.09
41044;BME280;51680;49.806;18.774;2023-08-20T11:46:30;97818.78;;;37.15;37.23
41044;BME280;51680;49.806;18.774;2023-08-20T11:49:32;97814.84;;;37.06;37.48
41044;BME280;51680;49.806;18.774;2023-08-20T11:52:35;97814.47;;;36.98;37.48
41044;BME280;51680;49.806;18.774;2023-08-20T11:55:42;97810.22;;;36.85;37.33
41044;BME280;51680;49.806;18.774;2023-08-20T11:58:49;97805.03;;;36.84;37.97
41044;BME280;51680;49.806;18.774;2023-08-20T12:01:52;97808.50;;;36.79;38.40
41044;BME280;51680;49.806;18.774;2023-08-20T12:04:55;97808.69;;;36.73;38.20
41044;BME280;51680;49.806;18.774;2023-08-20T12:08:00;97808.94;;;36.71;37.99
41044;BME280;51680;49.806;18.774;2023-08-20T12:11:04;97813.06;;;36.74;38.65
41044;BME280;51680;49.806;18.774;2023-08-20T12:14:06;97813.91;;;36.74;39.19
41044;BME280;51680;49.806;18.774;2023-08-20T12:17:07;97810.63;;;36.72;38.78
41044;BME280;51680;49.806;18.774;2023-08-20T12:20:10;97814.47;;;36.76;38.52
41044;BME280;51680;49.806;18.774;2023-08-20T12:23:13;97799.06;;;36.65;37.27
41044;BME280;51680;49.806;18.774;2023-08-20T12:26:16;97808.38;;;36.69;38.58
41044;BME280;51680;49.806;18.774;2023-08-20T12:29:18;97801.06;;;36.70;38.58
41044;BME280;51680;49.806;18.774;2023-08-20T12:32:20;97808.94;;;36.71;38.87
41044;BME280;51680;49.806;18.774;2023-08-20T12:35:22;97797.00;;;36.72;39.15
41044;BME280;51680;49.806;18.774;2023-08-20T12:38:23;97797.56;;;36.74;37.96
41044;BME280;51680;49.806;18.774;2023-08-20T12:41:27;97797.06;;;36.77;38.16
41044;BME280;51680;49.806;18.774;2023-08-20T12:44:28;97789.97;;;36.76;37.80
41044;BME280;51680;49.806;18.774;2023-08-20T12:47:30;97794.09;;;36.79;36.68
41044;BME280;51680;49.806;18.774;2023-08-20T12:50:32;97783.44;;;36.77;37.68
41044;BME280;51680;49.806;18.774;2023-08-20T12:53:33;97791.03;;;36.75;37.71
41044;BME280;51680;49.806;18.774;2023-08-20T12:56:36;97792.06;;;36.69;38.00
41044;BME280;51680;49.806;18.774;2023-08-20T12:59:38;97789.09;;;36.54;38.23
41044;BME280;51680;49.806;18.774;2023-08-20T13:02:40;97805.56;;;36.43;38.13
41044;BME280;51680;49.806;18.774;2023-08-20T13:05:43;97799.66;;;36.29;38.00
41044;BME280;51680;49.806;18.774;2023-08-20T13:08:45;97800.31;;;36.20;38.09
41044;BME280;51680;49.806;18.774;2023-08-20T13:11:49;97795.47;;;36.22;37.70
41044;BME280;51680;49.806;18.774;2023-08-20T13:14:54;97796.34;;;36.27;37.26
41044;BME280;51680;49.806;18.774;2023-08-20T13:17:56;97789.94;;;36.33;37.36
41044;BME280;51680;49.806;18.774;2023-08-20T13:20:58;97783.16;;;36.36;37.23
41044;BME280;51680;49.806;18.774;2023-08-20T13:24:00;97779.03;;;36.33;37.94
41044;BME280;51680;49.806;18.774;2023-08-20T13:27:03;97787.69;;;36.30;37.74
41044;BME280;51680;49.806;18.774;2023-08-20T13:30:05;97788.94;;;36.06;37.50
41044;BME280;51680;49.806;18.774;2023-08-20T13:33:08;97794.06;;;35.86;37.87
41044;BME280;51680;49.806;18.774;2023-08-20T13:36:10;97786.44;;;35.72;38.50
41044;BME280;51680;49.806;18.774;2023-08-20T13:39:12;97793.38;;;35.63;38.30
41044;BME280;51680;49.806;18.774;2023-08-20T13:42:16;97782.84;;;35.50;38.19
41044;BME280;51680;49.806;18.774;2023-08-20T13:45:17;97785.94;;;35.42;38.26
41044;BME280;51680;49.806;18.774;2023-08-20T13:48:19;97778.63;;;35.42;38.08
41044;BME280;51680;49.806;18.774;2023-08-20T13:51:21;97776.47;;;35.44;37.95
41044;BME280;51680;49.806;18.774;2023-08-20T13:54:23;97772.69;;;35.45;38.38
41044;BME280;51680;49.806;18.774;2023-08-20T13:57:26;97774.25;;;35.41;38.24
41044;BME280;51680;49.806;18.774;2023-08-20T14:00:27;97771.19;;;35.38;38.94
41044;BME280;51680;49.806;18.774;2023-08-20T14:03:29;97766.84;;;35.37;38.61
41044;BME280;51680;49.806;18.774;2023-08-20T14:06:31;97768.88;;;35.30;38.82
41044;BME280;51680;49.806;18.774;2023-08-20T14:09:33;97770.91;;;35.23;39.30
41044;BME280;51680;49.806;18.774;2023-08-20T14:12:37;97775.56;;;35.11;39.03
41044;BME280;51680;49.806;18.774;2023-08-20T14:15:39;97775.13;;;35.02;39.62
41044;BME280;51680;49.806;18.774;2023-08-20T14:18:41;97762.06;;;34.99;39.61
41044;BME280;51680;49.806;18.774;2023-08-20T14:21:43;97762.38;;;35.03;39.56
41044;BME280;51680;49.806;18.774;2023-08-20T14:24:44;97768.25;;;35.11;40.24
41044;BME280;51680;49.806;18.774;2023-08-20T14:27:47;97766.38;;;35.12;39.71
41044;BME280;51680;49.806;18.774;2023-08-20T14:30:50;97770.97;;;35.11;39.50
41044;BME280;51680;49.806;18.774;2023-08-20T14:33:54;97764.44;;;35.12;39.71
41044;BME280;51680;49.806;18.774;2023-08-20T14:36:56;97769.88;;;35.12;39.42
41044;BME280;51680;49.806;18.774;2023-08-20T14:39:57;97769.31;;;35.10;39.12
41044;BME280;51680;49.806;18.774;2023-08-20T14:43:00;97762.94;;;35.05;39.50
41044;BME280;51680;49.806;18.774;2023-08-20T14:46:04;97773.00;;;35.04;39.91
41044;BME280;51680;49.806;18.774;2023-08-20T14:49:05;97771.94;;;35.05;39.83
41044;BME280;51680;49.806;18.774;2023-08-20T14:52:07;97767.69;;;35.09;39.92
41044;BME280;51680;49.806;18.774;2023-08-20T14:55:09;97766.59;;;35.10;39.05
41044;BME280;51680;49.806;18.774;2023-08-20T14:58:12;97767.06;;;35.07;39.36
41044;BME280;51680;49.806;18.774;2023-08-20T15:01:14;97764.03;;;35.04;39.44
41044;BME280;51680;49.806;18.774;2023-08-20T15:04:16;97766.19;;;35.02;39.37
41044;BME280;51680;49.806;18.774;2023-08-20T15:07:18;97760.38;;;34.98;39.18
41044;BME280;51680;49.806;18.774;2023-08-20T15:10:20;97762.78;;;34.95;39.64
41044;BME280;51680;49.806;18.774;2023-08-20T15:13:23;97760.28;;;34.93;39.54
41044;BME280;51680;49.806;18.774;2023-08-20T15:16:25;97752.88;;;34.89;40.41
41044;BME280;51680;49.806;18.774;2023-08-20T15:19:26;97751.25;;;34.88;39.77
41044;BME280;51680;49.806;18.774;2023-08-20T15:22:28;97751.72;;;34.85;40.12
41044;BME280;51680;49.806;18.774;2023-08-20T15:25:30;97750.56;;;34.81;40.17
41044;BME280;51680;49.806;18.774;2023-08-20T15:28:33;97751.06;;;34.78;40.70
41044;BME280;51680;49.806;18.774;2023-08-20T15:31:35;97754.91;;;34.70;40.81
41044;BME280;51680;49.806;18.774;2023-08-20T15:34:37;97750.47;;;34.64;40.63
41044;BME280;51680;49.806;18.774;2023-08-20T15:37:38;97747.41;;;34.61;40.49
41044;BME280;51680;49.806;18.774;2023-08-20T15:40:40;97753.56;;;34.56;40.74
41044;BME280;51680;49.806;18.774;2023-08-20T15:43:43;97752.41;;;34.52;41.02
41044;BME280;51680;49.806;18.774;2023-08-20T15:46:45;97745.19;;;34.46;41.59
41044;BME280;51680;49.806;18.774;2023-08-20T15:49:47;97745.09;;;34.41;41.29
41044;BME280;51680;49.806;18.774;2023-08-20T15:52:49;97748.53;;;34.37;41.59
41044;BME280;51680;49.806;18.774;2023-08-20T15:55:50;97748.66;;;34.30;41.43